Time;durP1;ratioP1;P1;durP2;ratioP2;P2;SDS_P1;SDS_P2;PMS_P1;PMS_P2;Temp;Humidity;BMP_temperature;BMP_pressure;BME280_temperature;BME280_humidity;BME280_pressure;Samples;Min_cycle;Max_cycle;Signal;HPM_P1;HPM_P2
2023/09/05 00:00:28;;;;;;;3.33;3.10;;;27.80;49.40;;;;;;5040230;28;20463;-80
2023/09/05 00:02:56;;;;;;;3.70;3.50;;;27.70;49.60;;;;;;5040842;28;20442;-79
2023/09/05 00:05:24;;;;;;;3.60;3.40;;;27.70;49.60;;;;;;5040416;28;20447;-79
2023/09/05 00:07:54;;;;;;;3.50;3.30;;;27.70;49.50;;;;;;5040022;28;20474;-79
2023/09/05 00:10:24;;;;;;;3.77;3.47;;;27.60;49.60;;;;;;5041461;28;20517;-79
2023/09/05 00:12:52;;;;;;;3.70;3.40;;;27.60;49.50;;;;;;5040474;28;20482;-79
2023/09/05 00:15:21;;;;;;;3.40;3.20;;;27.60;49.70;;;;;;5041093;28;20421;-80
2023/09/05 00:17:49;;;;;;;3.57;3.37;;;27.60;49.70;;;;;;5040564;28;20803;-79
2023/09/05 00:20:17;;;;;;;3.43;3.23;;;27.60;49.70;;;;;;5039345;28;20470;-78
2023/09/05 00:22:45;;;;;;;2.80;2.70;;;27.60;49.70;;;;;;5039723;28;20470;-79
2023/09/05 00:25:15;;;;;;;3.63;3.33;;;27.60;49.70;;;;;;5039917;28;20478;-79
2023/09/05 00:27:43;;;;;;;2.87;2.77;;;27.50;49.70;;;;;;5040282;28;20435;-79
2023/09/05 00:30:14;;;;;;;3.00;2.90;;;27.50;49.70;;;;;;5042224;28;20450;-79
2023/09/05 00:32:42;;;;;;;3.07;2.90;;;27.40;49.70;;;;;;5041039;28;20452;-79
2023/09/05 00:35:13;;;;;;;3.30;3.00;;;27.40;49.70;;;;;;5041832;28;20422;-79
2023/09/05 00:37:41;;;;;;;3.47;3.27;;;27.40;49.90;;;;;;5041542;28;20446;-79
2023/09/05 00:40:11;;;;;;;4.73;3.57;;;27.40;49.80;;;;;;5040873;28;20868;-79
2023/09/05 00:42:40;;;;;;;3.90;3.60;;;27.40;49.90;;;;;;5041840;28;20417;-79
2023/09/05 00:45:10;;;;;;;3.10;3.00;;;27.40;49.90;;;;;;5043244;28;20444;-79
2023/09/05 00:47:39;;;;;;;3.13;2.93;;;27.30;50.00;;;;;;5043179;28;20451;-79
2023/09/05 00:50:09;;;;;;;3.40;3.20;;;27.30;49.90;;;;;;5043784;28;20446;-80
2023/09/05 00:52:37;;;;;;;3.00;2.70;;;27.30;49.90;;;;;;5042574;28;20418;-79
2023/09/05 00:55:05;;;;;;;2.93;2.83;;;27.30;50.00;;;;;;5042689;28;20450;-80
2023/09/05 00:57:33;;;;;;;3.27;2.87;;;27.30;50.00;;;;;;5041827;28;20440;-80
2023/09/05 01:00:03;;;;;;;3.10;2.90;;;27.20;50.00;;;;;;5040520;28;20451;-81
2023/09/05 01:02:31;;;;;;;3.30;3.10;;;27.20;50.00;;;;;;5045225;28;20436;-81
2023/09/05 01:05:00;;;;;;;3.20;3.00;;;27.20;50.10;;;;;;5043499;28;20425;-80
2023/09/05 01:07:31;;;;;;;3.30;3.10;;;27.20;50.00;;;;;;5043615;28;20448;-79
2023/09/05 01:10:05;;;;;;;3.13;3.00;;;27.20;50.00;;;;;;5066736;22;20487;-77
2023/09/05 01:12:33;;;;;;;3.40;3.20;;;27.10;50.20;;;;;;5111902;28;20406;-78
2023/09/05 01:15:02;;;;;;;3.00;2.90;;;27.10;50.20;;;;;;5112020;28;20433;-77
2023/09/05 01:17:30;;;;;;;2.80;2.70;;;27.10;50.10;;;;;;5111596;28;20978;-77
2023/09/05 01:19:58;;;;;;;2.80;2.70;;;27.10;50.30;;;;;;5111424;28;20496;-77
2023/09/05 01:22:30;;;;;;;3.17;2.97;;;27.10;50.20;;;;;;5111796;28;20465;-77
2023/09/05 01:25:00;;;;;;;3.50;3.30;;;27.10;50.10;;;;;;5111858;28;20436;-77
2023/09/05 01:27:28;;;;;;;3.03;2.83;;;27.00;50.10;;;;;;5111443;28;20438;-77
2023/09/05 01:29:56;;;;;;;3.10;3.00;;;27.00;50.20;;;;;;5111514;28;20419;-78
2023/09/05 01:32:24;;;;;;;5.20;3.30;;;27.00;50.30;;;;;;5111850;28;20483;-78
2023/09/05 01:34:55;;;;;;;3.03;2.93;;;27.00;50.40;;;;;;5111855;28;20418;-77
2023/09/05 01:37:24;;;;;;;3.47;3.17;;;27.00;50.40;;;;;;5111774;28;20425;-76
2023/09/05 01:39:51;;;;;;;3.07;2.97;;;27.00;50.30;;;;;;5111913;28;20449;-77
2023/09/05 01:42:21;;;;;;;3.40;3.20;;;27.00;50.40;;;;;;5111777;28;20432;-76
2023/09/05 01:44:48;;;;;;;14.27;12.00;;;27.00;50.30;;;;;;5111750;28;20479;-78
2023/09/05 01:47:17;;;;;;;18.10;10.00;;;26.90;50.30;;;;;;5110472;28;20450;-79
2023/09/05 01:49:44;;;;;;;10.43;9.03;;;26.90;50.30;;;;;;5111154;28;20482;-77
2023/09/05 01:52:12;;;;;;;9.80;8.80;;;26.90;50.40;;;;;;5111633;28;20450;-75
2023/09/05 01:54:41;;;;;;;10.50;9.37;;;26.90;50.60;;;;;;5111119;28;20506;-78
2023/09/05 01:57:09;;;;;;;10.37;9.30;;;26.80;50.40;;;;;;5111112;28;20768;-78
2023/09/05 01:59:39;;;;;;;11.47;9.77;;;26.80;50.40;;;;;;5111397;28;20498;-78
2023/09/05 02:02:07;;;;;;;12.40;10.30;;;26.80;50.60;;;;;;5111343;28;20530;-77
2023/09/05 02:04:35;;;;;;;11.93;10.47;;;26.80;50.50;;;;;;5111251;28;20414;-77
2023/09/05 02:07:03;;;;;;;12.27;10.17;;;26.80;50.40;;;;;;5111106;28;20448;-77
2023/09/05 02:09:32;;;;;;;12.90;10.40;;;26.80;50.60;;;;;;5111291;28;20443;-78
2023/09/05 02:11:59;;;;;;;11.77;9.80;;;26.80;50.60;;;;;;5111472;28;20555;-78
2023/09/05 02:14:27;;;;;;;12.40;10.67;;;26.80;50.50;;;;;;5111403;28;20438;-77
2023/09/05 02:16:57;;;;;;;13.20;11.00;;;26.70;50.60;;;;;;5111191;28;20424;-77
2023/09/05 02:19:27;;;;;;;12.53;10.67;;;26.70;50.60;;;;;;5111263;28;20555;-78
2023/09/05 02:21:55;;;;;;;11.70;10.03;;;26.70;50.60;;;;;;5110954;28;20444;-77
2023/09/05 02:24:26;;;;;;;13.43;11.57;;;26.70;50.60;;;;;;5110744;28;20892;-78
2023/09/05 02:26:54;;;;;;;11.93;10.60;;;26.70;50.60;;;;;;5111305;28;20474;-77
2023/09/05 02:29:26;;;;;;;10.60;9.50;;;26.60;50.60;;;;;;5111002;28;20529;-79
2023/09/05 02:31:54;;;;;;;10.30;9.20;;;26.60;50.60;;;;;;5111021;28;20496;-78
2023/09/05 02:34:23;;;;;;;11.83;10.10;;;26.60;50.70;;;;;;5110817;28;20867;-77
2023/09/05 02:36:54;;;;;;;12.30;10.30;;;26.60;50.80;;;;;;5110833;28;20468;-78
2023/09/05 02:39:22;;;;;;;10.87;9.73;;;26.60;50.90;;;;;;5110671;28;20923;-78
2023/09/05 02:41:50;;;;;;;12.57;10.93;;;26.60;50.80;;;;;;5110820;28;20455;-78
2023/09/05 02:44:18;;;;;;;11.90;10.30;;;26.60;50.90;;;;;;5110434;28;20438;-79
2023/09/05 02:46:46;;;;;;;11.33;9.70;;;26.60;50.80;;;;;;5110732;28;20523;-79
2023/09/05 02:49:13;;;;;;;10.80;9.60;;;26.60;50.90;;;;;;5110982;28;21158;-77
2023/09/05 02:51:43;;;;;;;11.10;9.70;;;26.50;50.80;;;;;;5110221;28;20568;-76
2023/09/05 02:54:11;;;;;;;10.73;9.30;;;26.50;50.90;;;;;;5110803;28;20468;-77
2023/09/05 02:56:39;;;;;;;10.47;9.40;;;26.40;50.80;;;;;;5110722;28;20935;-78
2023/09/05 02:59:07;;;;;;;9.97;8.90;;;26.50;51.00;;;;;;5113026;28;20419;-78
2023/09/05 03:01:35;;;;;;;10.87;8.97;;;26.50;51.00;;;;;;5114437;28;20427;-77
2023/09/05 03:04:03;;;;;;;9.77;8.73;;;26.50;51.00;;;;;;5114570;28;20434;-77
2023/09/05 03:06:31;;;;;;;9.50;8.50;;;26.40;51.00;;;;;;5114661;28;20442;-77
2023/09/05 03:09:01;;;;;;;10.10;8.53;;;26.40;50.90;;;;;;5114210;28;20475;-76
2023/09/05 03:11:29;;;;;;;10.17;9.17;;;26.40;50.80;;;;;;5114019;28;20464;-77
2023/09/05 03:13:56;;;;;;;9.40;8.47;;;26.40;51.00;;;;;;5114634;28;20417;-77
2023/09/05 03:16:25;;;;;;;9.13;8.20;;;26.30;51.00;;;;;;5114171;28;20410;-77
2023/09/05 03:18:52;;;;;;;9.20;8.30;;;26.30;51.10;;;;;;5113941;28;20436;-78
2023/09/05 03:21:22;;;;;;;8.47;7.67;;;26.30;51.00;;;;;;5114453;28;20558;-78
2023/09/05 03:33:30;;;;;;;8.80;7.90;;;26.20;51.00;;;;;;4992191;28;20445;-76
2023/09/05 03:35:59;;;;;;;8.57;7.73;;;26.20;51.30;;;;;;4993978;28;20442;-76
2023/09/05 03:38:27;;;;;;;9.30;8.13;;;26.20;51.20;;;;;;4996678;28;20445;-77
2023/09/05 03:40:55;;;;;;;10.73;7.57;;;26.20;51.20;;;;;;4997164;28;20443;-79
2023/09/05 03:43:23;;;;;;;8.17;7.37;;;26.20;51.40;;;;;;4997347;28;20512;-79
2023/09/05 03:45:52;;;;;;;8.00;7.20;;;26.20;51.20;;;;;;4996719;28;20465;-79
2023/09/05 03:48:21;;;;;;;7.93;7.13;;;26.10;51.20;;;;;;4996379;28;20518;-80
2023/09/05 03:50:51;;;;;;;7.50;6.80;;;26.20;51.30;;;;;;4996023;28;20441;-79
2023/09/05 03:53:20;;;;;;;8.07;7.27;;;26.10;51.20;;;;;;4995727;28;20560;-79
2023/09/05 03:55:48;;;;;;;7.50;6.80;;;26.10;51.30;;;;;;4995482;28;20456;-80
2023/09/05 03:58:17;;;;;;;8.30;7.50;;;26.20;51.40;;;;;;4995285;28;20416;-78
2023/09/05 04:00:45;;;;;;;7.03;6.33;;;26.10;51.30;;;;;;4994734;28;20437;-80
2023/09/05 04:03:13;;;;;;;7.90;6.63;;;26.10;51.20;;;;;;4993871;28;20753;-79
2023/09/05 04:05:41;;;;;;;7.80;7.07;;;26.10;51.40;;;;;;4995532;28;20470;-79
2023/09/05 04:08:11;;;;;;;9.00;6.63;;;26.10;51.90;;;;;;4995303;28;20480;-77
2023/09/05 04:10:40;;;;;;;7.10;6.40;;;26.10;51.40;;;;;;4993553;28;20468;-78
2023/09/05 04:13:08;;;;;;;7.63;6.60;;;26.10;51.40;;;;;;4993505;28;20440;-79
2023/09/05 04:15:37;;;;;;;7.10;6.40;;;26.00;51.40;;;;;;4993587;28;20482;-78
2023/09/05 04:18:05;;;;;;;7.20;6.50;;;26.00;51.30;;;;;;4993217;28;20491;-78
2023/09/05 04:20:34;;;;;;;6.50;5.90;;;26.00;51.40;;;;;;4993305;28;20418;-79
2023/09/05 04:23:02;;;;;;;6.03;5.53;;;25.90;52.00;;;;;;4992858;28;20416;-79
2023/09/05 04:25:32;;;;;;;6.80;6.10;;;25.90;51.40;;;;;;4993999;28;20556;-79
2023/09/05 04:28:00;;;;;;;6.87;6.23;;;25.90;51.40;;;;;;4994074;28;20428;-78
2023/09/05 04:30:28;;;;;;;10.20;6.70;;;25.90;51.30;;;;;;4993209;28;20433;-79
2023/09/05 04:32:57;;;;;;;6.53;5.93;;;25.90;51.50;;;;;;4993209;28;20448;-79
2023/09/05 04:35:25;;;;;;;6.60;5.97;;;25.90;51.50;;;;;;4992803;28;20432;-79
2023/09/05 04:37:54;;;;;;;6.13;5.63;;;25.90;51.50;;;;;;4994187;28;20416;-78
2023/09/05 04:40:21;;;;;;;7.00;6.30;;;25.80;51.50;;;;;;4993055;28;20523;-79
2023/09/05 04:42:52;;;;;;;6.07;5.47;;;25.80;51.40;;;;;;4994496;28;20433;-78
2023/09/05 04:45:20;;;;;;;6.73;6.17;;;25.80;51.40;;;;;;4992685;28;20500;-79
2023/09/05 04:47:48;;;;;;;6.63;5.97;;;25.80;51.60;;;;;;4992423;28;20437;-79
2023/09/05 04:50:16;;;;;;;6.00;5.50;;;25.80;51.60;;;;;;4992977;28;20420;-80
2023/09/05 04:52:44;;;;;;;6.40;5.80;;;25.80;51.60;;;;;;4993277;28;20904;-79
2023/09/05 04:55:12;;;;;;;6.30;5.70;;;25.80;51.60;;;;;;4993107;28;20578;-80
2023/09/05 04:57:42;;;;;;;6.97;5.80;;;25.80;51.60;;;;;;4992377;28;20482;-79
2023/09/05 05:00:13;;;;;;;5.80;5.23;;;25.80;51.70;;;;;;4992803;28;20524;-79
2023/09/05 05:02:41;;;;;;;6.03;5.50;;;25.80;51.40;;;;;;4992703;28;20416;-79
2023/09/05 05:05:11;;;;;;;5.63;5.13;;;25.80;51.70;;;;;;4992223;28;20448;-78
2023/09/05 05:07:39;;;;;;;6.23;5.67;;;25.70;51.50;;;;;;4992124;28;20441;-79
2023/09/05 05:10:08;;;;;;;6.50;5.77;;;25.70;51.60;;;;;;4992471;28;20510;-79
2023/09/05 05:12:36;;;;;;;5.33;4.93;;;25.70;51.80;;;;;;4992485;28;20469;-79
2023/09/05 05:15:04;;;;;;;5.90;5.40;;;25.70;51.70;;;;;;4992392;28;20559;-78
2023/09/05 05:17:34;;;;;;;5.93;5.43;;;25.70;51.70;;;;;;4992152;28;20519;-79
2023/09/05 05:20:04;;;;;;;5.57;5.10;;;25.70;51.80;;;;;;4992024;28;20442;-79
2023/09/05 05:22:32;;;;;;;5.90;5.40;;;25.70;51.80;;;;;;4992254;28;20419;-79
2023/09/05 05:25:00;;;;;;;5.40;4.90;;;25.70;51.70;;;;;;4992194;28;20568;-80
2023/09/05 05:27:29;;;;;;;5.43;4.90;;;25.70;51.90;;;;;;4992363;28;20480;-79
2023/09/05 05:29:57;;;;;;;5.30;4.90;;;25.70;51.70;;;;;;4992354;28;20460;-79
2023/09/05 05:32:24;;;;;;;5.43;4.93;;;25.60;51.80;;;;;;4993903;28;20481;-80
2023/09/05 05:34:54;;;;;;;5.40;4.90;;;25.60;51.80;;;;;;4992508;28;20466;-80
2023/09/05 05:37:22;;;;;;;5.20;4.80;;;25.70;51.90;;;;;;4995008;28;20540;-79
2023/09/05 05:39:51;;;;;;;5.70;5.20;;;25.60;51.60;;;;;;4997194;28;20548;-79
2023/09/05 05:42:19;;;;;;;5.47;4.97;;;25.60;51.80;;;;;;4997472;28;20445;-79
2023/09/05 05:44:48;;;;;;;4.37;4.07;;;25.60;51.60;;;;;;4995866;28;20494;-80
2023/09/05 05:47:16;;;;;;;5.20;4.70;;;25.60;51.60;;;;;;4996752;28;20517;-79
2023/09/05 05:49:44;;;;;;;4.80;4.40;;;25.50;51.70;;;;;;4996497;28;20480;-80
2023/09/05 05:52:14;;;;;;;4.50;4.20;;;25.50;51.90;;;;;;4996445;28;20440;-79
2023/09/05 05:54:42;;;;;;;5.00;4.53;;;25.50;51.80;;;;;;4995422;28;20488;-81
2023/09/05 05:57:10;;;;;;;4.70;4.40;;;25.50;51.90;;;;;;4995993;28;20491;-80
2023/09/05 05:59:40;;;;;;;4.97;4.57;;;25.50;51.80;;;;;;4994843;28;20428;-79
2023/09/05 06:02:07;;;;;;;4.40;4.10;;;25.50;52.10;;;;;;4992422;28;20484;-80
2023/09/05 06:04:36;;;;;;;5.07;4.67;;;25.50;51.90;;;;;;4992545;28;20437;-79
2023/09/05 06:07:04;;;;;;;4.70;4.40;;;25.50;51.90;;;;;;4994225;28;20840;-79
2023/09/05 06:09:33;;;;;;;4.90;4.50;;;25.50;51.90;;;;;;4993789;28;20448;-79
2023/09/05 06:12:01;;;;;;;4.90;4.40;;;25.50;51.80;;;;;;4994950;28;20525;-79
2023/09/05 06:14:29;;;;;;;4.93;4.53;;;25.60;51.90;;;;;;4993750;28;20469;-79
2023/09/05 06:16:57;;;;;;;5.47;4.97;;;25.60;52.00;;;;;;4993163;28;20529;-79
2023/09/05 06:19:27;;;;;;;4.40;4.10;;;25.70;52.00;;;;;;4994970;28;20796;-79
2023/09/05 06:21:56;;;;;;;5.03;4.63;;;25.70;51.60;;;;;;4996730;28;20450;-79
2023/09/05 06:24:24;;;;;;;5.27;4.87;;;25.70;52.40;;;;;;4992383;28;20438;-78
2023/09/05 06:26:54;;;;;;;4.20;3.87;;;25.70;51.80;;;;;;4992418;28;20528;-78
2023/09/05 06:29:22;;;;;;;4.60;4.20;;;25.70;51.70;;;;;;4992015;28;20444;-79
2023/09/05 06:31:51;;;;;;;5.00;4.60;;;25.80;51.40;;;;;;4992003;28;20932;-79
2023/09/05 06:34:19;;;;;;;4.70;4.30;;;25.80;51.50;;;;;;4994142;28;20502;-79
2023/09/05 06:36:46;;;;;;;4.43;4.13;;;25.80;51.60;;;;;;4995420;28;20423;-78
2023/09/05 06:39:15;;;;;;;5.23;4.73;;;25.80;51.40;;;;;;4995195;28;20445;-79
2023/09/05 06:41:43;;;;;;;4.27;3.97;;;25.80;51.50;;;;;;4994466;28;20516;-79
2023/09/05 06:44:12;;;;;;;4.40;4.00;;;25.80;51.50;;;;;;4995521;28;20462;-79
2023/09/05 06:46:44;;;;;;;4.50;4.10;;;25.80;51.40;;;;;;4999391;28;20471;-80
2023/09/05 06:49:13;;;;;;;4.30;4.00;;;25.80;51.60;;;;;;5001968;28;20460;-81
2023/09/05 06:51:41;;;;;;;5.87;4.37;;;25.90;51.20;;;;;;5002565;28;20511;-79
2023/09/05 06:54:09;;;;;;;4.43;4.00;;;25.80;52.20;;;;;;5000145;28;20448;-80
2023/09/05 06:56:37;;;;;;;4.33;4.03;;;25.90;51.40;;;;;;5002036;28;20444;-80
2023/09/05 06:59:17;;;;;;;3.80;3.50;;;25.90;51.60;;;;;;5001530;28;20466;-80
2023/09/05 07:01:46;;;;;;;4.20;3.90;;;25.90;51.50;;;;;;5001632;28;20431;-80
2023/09/05 07:04:15;;;;;;;4.73;4.33;;;25.90;51.50;;;;;;5004420;28;20444;-79
2023/09/05 07:06:45;;;;;;;3.80;3.50;;;25.90;51.40;;;;;;5001862;28;20453;-80
2023/09/05 07:09:14;;;;;;;4.40;4.10;;;25.90;51.40;;;;;;5003521;28;20511;-79
2023/09/05 07:11:42;;;;;;;4.00;3.70;;;25.90;51.40;;;;;;5002971;28;20451;-79
2023/09/05 07:14:10;;;;;;;4.63;3.83;;;25.90;51.40;;;;;;5001129;28;20500;-79
2023/09/05 07:16:38;;;;;;;3.97;3.67;;;26.00;51.60;;;;;;5001098;28;20477;-80
2023/09/05 07:19:07;;;;;;;3.97;3.70;;;26.00;51.50;;;;;;5001986;28;20528;-81
2023/09/05 07:21:37;;;;;;;3.63;3.43;;;26.00;51.40;;;;;;5001624;28;20905;-81
2023/09/05 07:24:07;;;;;;;4.70;4.30;;;26.00;51.40;;;;;;5001515;28;20430;-80
2023/09/05 07:26:35;;;;;;;3.60;3.40;;;26.10;51.40;;;;;;5004319;28;20456;-81
2023/09/05 07:29:03;;;;;;;3.83;3.63;;;26.10;51.30;;;;;;5002001;28;20474;-80
2023/09/05 07:31:31;;;;;;;4.30;3.90;;;26.10;51.30;;;;;;5000396;28;20451;-80
2023/09/05 07:33:59;;;;;;;3.90;3.70;;;26.20;52.00;;;;;;4998989;28;20451;-80
2023/09/05 07:36:31;;;;;;;4.27;4.07;;;26.20;51.20;;;;;;4996403;28;20494;-76
2023/09/05 07:38:59;;;;;;;4.00;3.70;;;26.20;51.10;;;;;;4993628;28;20503;-78
2023/09/05 07:41:27;;;;;;;3.90;3.70;;;26.30;51.20;;;;;;4999997;28;20438;-79
2023/09/05 07:43:55;;;;;;;3.40;3.20;;;26.30;51.10;;;;;;4999272;28;20475;-80
2023/09/05 07:46:23;;;;;;;3.50;3.30;;;26.40;51.10;;;;;;4999039;28;20467;-79
2023/09/05 07:48:52;;;;;;;3.80;3.60;;;26.40;51.00;;;;;;4999537;28;20438;-79
2023/09/05 07:51:22;;;;;;;4.40;4.07;;;26.50;50.90;;;;;;4998623;28;20584;-80
2023/09/05 07:54:03;;;;;;;4.07;3.67;;;26.60;50.90;;;;;;4998397;28;20473;-79
2023/09/05 07:56:31;;;;;;;3.70;3.50;;;26.80;50.70;;;;;;4994858;28;20447;-79
2023/09/05 07:58:59;;;;;;;3.90;3.70;;;26.90;50.40;;;;;;4993957;28;20427;-78
2023/09/05 08:01:27;;;;;;;3.47;3.27;;;27.00;50.40;;;;;;4995430;28;20465;-77
2023/09/05 08:03:55;;;;;;;3.00;2.90;;;27.20;50.20;;;;;;4996217;28;20496;-78
2023/09/05 08:06:26;;;;;;;3.63;3.43;;;27.30;50.10;;;;;;4994590;28;20443;-79
2023/09/05 08:08:56;;;;;;;2.93;2.83;;;27.50;50.00;;;;;;4994281;28;20449;-79
2023/09/05 08:11:24;;;;;;;4.50;3.17;;;27.60;49.80;;;;;;4994966;28;20949;-78
2023/09/05 08:13:52;;;;;;;3.40;3.20;;;27.80;49.80;;;;;;4993489;28;20476;-78
2023/09/05 08:16:23;;;;;;;3.30;3.10;;;27.90;49.70;;;;;;4994733;28;20428;-79
2023/09/05 08:18:51;;;;;;;3.40;3.30;;;28.10;49.40;;;;;;4994534;28;20527;-79
2023/09/05 08:21:19;;;;;;;3.23;3.13;;;28.30;49.20;;;;;;4993717;28;20416;-78
2023/09/05 08:23:50;;;;;;;3.50;3.30;;;28.40;49.10;;;;;;4994460;28;20441;-78
2023/09/05 08:26:19;;;;;;;3.70;3.50;;;28.60;49.00;;;;;;4994297;28;20447;-79
2023/09/05 08:28:47;;;;;;;3.90;3.57;;;28.80;48.80;;;;;;4994221;28;20424;-79
2023/09/05 08:31:15;;;;;;;3.03;2.93;;;29.00;48.60;;;;;;4993770;28;20420;-78
2023/09/05 08:33:45;;;;;;;3.10;3.00;;;29.10;48.60;;;;;;4992991;28;20464;-79
2023/09/05 08:36:14;;;;;;;2.80;2.70;;;29.40;48.40;;;;;;4992521;28;20448;-78
2023/09/05 08:38:41;;;;;;;2.93;2.83;;;29.50;48.10;;;;;;4993115;28;20777;-79
2023/09/05 08:41:10;;;;;;;3.07;2.97;;;29.70;47.90;;;;;;4993257;28;20468;-79
2023/09/05 08:43:39;;;;;;;3.43;3.23;;;29.90;47.80;;;;;;4993157;28;20427;-79
2023/09/05 08:46:07;;;;;;;3.07;2.97;;;30.10;47.60;;;;;;4993560;28;20464;-79
2023/09/05 08:48:35;;;;;;;3.50;3.30;;;30.20;47.40;;;;;;4993946;28;20504;-79
2023/09/05 08:51:21;;;;;;;2.77;2.67;;;30.40;47.20;;;;;;4993630;28;20479;-79
2023/09/05 08:53:53;;;;;;;2.93;2.83;;;30.60;47.00;;;;;;4993503;28;20442;-77
2023/09/05 08:56:21;;;;;;;2.70;2.60;;;30.80;46.90;;;;;;4993739;28;20516;-80
2023/09/05 08:58:51;;;;;;;2.90;2.80;;;31.00;46.60;;;;;;4996056;28;20453;-77
2023/09/05 09:01:19;;;;;;;3.20;3.10;;;31.10;46.50;;;;;;4996023;28;20441;-80
2023/09/05 09:03:50;;;;;;;3.13;2.93;;;31.30;46.40;;;;;;4997587;28;20437;-81
2023/09/05 09:06:22;;;;;;;3.30;3.10;;;31.40;46.30;;;;;;4998511;28;20448;-81
2023/09/05 09:08:50;;;;;;;5.60;2.60;;;31.60;46.10;;;;;;4997884;28;20468;-81
2023/09/05 09:11:20;;;;;;;3.07;2.77;;;31.80;45.80;;;;;;4998219;28;20456;-81
2023/09/05 09:13:48;;;;;;;3.30;3.20;;;32.00;45.80;;;;;;4998271;28;20474;-81
2023/09/05 09:16:18;;;;;;;2.70;2.60;;;32.10;45.60;;;;;;4998559;28;20497;-80
2023/09/05 09:18:50;;;;;;;7.43;2.77;;;32.30;45.40;;;;;;4998852;28;20412;-80
2023/09/05 09:21:18;;;;;;;2.67;2.57;;;32.50;45.30;;;;;;5000342;28;20416;-80
2023/09/05 09:23:51;;;;;;;2.70;2.60;;;32.60;45.10;;;;;;4999943;28;20442;-81
2023/09/05 09:26:19;;;;;;;2.40;2.30;;;32.80;45.00;;;;;;4998898;28;20512;-81
2023/09/05 09:28:47;;;;;;;2.80;2.60;;;33.00;44.80;;;;;;5001942;28;20449;-80
2023/09/05 09:31:15;;;;;;;2.50;2.40;;;33.20;44.60;;;;;;5002005;28;20483;-81
2023/09/05 09:33:45;;;;;;;2.30;2.20;;;33.30;44.50;;;;;;5002705;28;20453;-80
2023/09/05 09:36:15;;;;;;;2.20;2.10;;;33.50;44.30;;;;;;5003639;28;20472;-79
2023/09/05 09:38:43;;;;;;;2.30;2.20;;;33.70;44.10;;;;;;5043848;22;20483;-78
2023/09/05 09:41:14;;;;;;;2.10;2.10;;;33.80;43.90;;;;;;5030886;28;20435;-76
2023/09/05 09:43:42;;;;;;;1.97;1.97;;;34.00;43.80;;;;;;5031061;28;20545;-78
2023/09/05 09:46:10;;;;;;;2.93;2.73;;;34.20;43.60;;;;;;5030951;28;20431;-80
2023/09/05 09:48:38;;;;;;;2.50;2.40;;;34.30;43.40;;;;;;5031272;28;20463;-80
2023/09/05 09:51:08;;;;;;;2.10;2.10;;;34.50;43.30;;;;;;5031167;28;20440;-79
2023/09/05 09:53:38;;;;;;;2.40;2.30;;;34.70;43.10;;;;;;5031996;28;20432;-78
2023/09/05 09:56:09;;;;;;;1.70;1.70;;;34.80;42.90;;;;;;5033172;28;20475;-77
2023/09/05 09:58:39;;;;;;;2.10;2.10;;;35.00;42.80;;;;;;5032766;28;20510;-78
2023/09/05 10:01:07;;;;;;;2.57;2.47;;;35.20;42.60;;;;;;5030703;28;20446;-79
2023/09/05 10:03:36;;;;;;;2.03;2.03;;;35.40;42.50;;;;;;5030693;28;20875;-76
2023/09/05 10:06:05;;;;;;;2.20;2.10;;;35.50;42.30;;;;;;5030868;28;20442;-78
2023/09/05 10:08:35;;;;;;;2.80;2.60;;;35.70;42.20;;;;;;5032592;28;20490;-79
2023/09/05 10:11:09;;;;;;;2.13;2.07;;;35.80;42.00;;;;;;5035189;28;20427;-78
2023/09/05 10:13:38;;;;;;;2.10;2.00;;;36.00;41.90;;;;;;5035612;28;20454;-77
2023/09/05 10:16:06;;;;;;;2.03;1.93;;;36.10;41.70;;;;;;5035098;28;20586;-79
2023/09/05 10:18:38;;;;;;;2.10;2.00;;;36.30;41.60;;;;;;5036887;28;20459;-78
2023/09/05 10:21:06;;;;;;;4.97;1.77;;;36.50;41.50;;;;;;5034565;28;20457;-78
2023/09/05 10:23:37;;;;;;;2.00;1.90;;;36.60;41.30;;;;;;5034921;28;20478;-78
2023/09/05 10:26:07;;;;;;;2.13;2.03;;;36.70;41.10;;;;;;5034566;28;20471;-78
2023/09/05 10:28:36;;;;;;;2.00;1.90;;;36.90;41.00;;;;;;5035429;28;20474;-78
2023/09/05 10:31:12;;;;;;;1.93;1.83;;;37.10;40.90;;;;;;5034696;28;20521;-79
2023/09/05 10:33:45;;;;;;;1.83;1.83;;;37.20;40.80;;;;;;5038454;28;20454;-80
2023/09/05 10:36:39;;;;;;;2.30;1.60;;;37.40;40.60;;;;;;5039392;28;20448;-79
2023/09/05 10:39:24;;;;;;;1.90;1.90;;;37.60;40.50;;;;;;5038643;28;20511;-79
2023/09/05 10:41:52;;;;;;;1.80;1.80;;;37.70;40.20;;;;;;5039264;28;20432;-79
2023/09/05 10:44:23;;;;;;;1.70;1.60;;;37.80;40.10;;;;;;5041565;28;20439;-80
2023/09/05 10:46:53;;;;;;;1.97;1.87;;;38.00;40.00;;;;;;5042229;28;20557;-80
2023/09/05 10:49:21;;;;;;;2.20;2.20;;;38.10;39.80;;;;;;5040836;28;20520;-80
2023/09/05 10:52:16;;;;;;;1.60;1.60;;;38.20;39.70;;;;;;5039039;28;20470;-80
2023/09/05 10:54:46;;;;;;;4.30;1.70;;;38.40;39.60;;;;;;5038902;28;20863;-80
2023/09/05 10:57:33;;;;;;;1.70;1.70;;;38.60;39.40;;;;;;5038582;28;20852;-80
2023/09/05 11:00:10;;;;;;;1.73;1.73;;;38.70;39.20;;;;;;5038923;28;20474;-80
2023/09/05 11:02:40;;;;;;;1.90;1.90;;;38.90;39.20;;;;;;5039262;28;20509;-80
2023/09/05 11:05:11;;;;;;;1.80;1.70;;;39.00;39.00;;;;;;5051941;28;20424;-80
2023/09/05 11:07:42;;;;;;;1.97;1.87;;;39.10;38.80;;;;;;5053450;28;20463;-81
2023/09/05 11:10:16;;;;;;;1.80;1.80;;;39.30;38.60;;;;;;5045706;28;20466;-79
2023/09/05 11:12:44;;;;;;;2.10;2.00;;;39.40;38.50;;;;;;5035806;28;20531;-79
2023/09/05 11:15:12;;;;;;;1.87;1.77;;;39.50;38.40;;;;;;5035760;28;20538;-78
2023/09/05 11:17:40;;;;;;;1.93;1.93;;;39.60;38.20;;;;;;5035627;28;20546;-78
2023/09/05 11:20:12;;;;;;;1.80;1.80;;;39.70;38.10;;;;;;5034636;28;20485;-79
2023/09/05 11:22:40;;;;;;;1.80;1.80;;;39.90;38.00;;;;;;5035606;28;20459;-79
2023/09/05 11:25:09;;;;;;;1.70;1.70;;;40.00;38.00;;;;;;5035405;28;20448;-79
2023/09/05 11:27:40;;;;;;;1.57;1.57;;;40.10;37.80;;;;;;5036282;28;20538;-80
2023/09/05 11:30:10;;;;;;;1.47;1.47;;;40.20;37.60;;;;;;5036305;28;20447;-80
2023/09/05 11:32:39;;;;;;;1.80;1.80;;;40.30;37.50;;;;;;5035585;28;20513;-80
2023/09/05 11:35:10;;;;;;;1.60;1.60;;;40.40;37.40;;;;;;5037180;28;20446;-80
2023/09/05 11:37:38;;;;;;;1.60;1.60;;;40.50;37.30;;;;;;5036426;28;20810;-79
2023/09/05 11:40:12;;;;;;;1.93;1.70;;;40.60;37.30;;;;;;5037083;28;20503;-79
2023/09/05 11:42:42;;;;;;;1.70;1.60;;;40.70;37.10;;;;;;5038349;28;20477;-80
2023/09/05 11:45:17;;;;;;;1.53;1.53;;;40.70;37.00;;;;;;5036652;28;20471;-79
2023/09/05 11:47:44;;;;;;;1.50;1.50;;;40.80;36.70;;;;;;5035998;28;20520;-80
2023/09/05 11:50:14;;;;;;;1.63;1.63;;;40.90;36.80;;;;;;5035822;28;20453;-79
2023/09/05 11:52:43;;;;;;;1.60;1.50;;;41.00;36.60;;;;;;5038112;28;20519;-80
2023/09/05 11:55:11;;;;;;;1.83;1.73;;;41.00;36.30;;;;;;5040783;28;20496;-80
2023/09/05 11:57:40;;;;;;;1.40;1.40;;;41.10;36.40;;;;;;5040301;28;20463;-80
2023/09/05 12:00:14;;;;;;;1.40;1.40;;;41.20;36.20;;;;;;5040069;28;20443;-80
2023/09/05 12:02:43;;;;;;;1.60;1.60;;;41.30;36.40;;;;;;5039922;28;20826;-80
2023/09/05 12:05:12;;;;;;;1.70;1.60;;;41.40;36.30;;;;;;5043960;28;20569;-82
2023/09/05 12:07:41;;;;;;;1.50;1.50;;;41.40;35.90;;;;;;5044955;28;20474;-80
2023/09/05 12:10:10;;;;;;;1.30;1.30;;;41.40;35.60;;;;;;5044716;28;20458;-82
2023/09/05 12:12:38;;;;;;;1.70;1.70;;;41.50;35.90;;;;;;5046007;28;20485;-80
2023/09/05 12:15:07;;;;;;;1.40;1.40;;;41.50;35.50;;;;;;5045149;28;20470;-82
2023/09/05 12:17:37;;;;;;;1.60;1.60;;;41.60;35.40;;;;;;5044246;28;20478;-80
2023/09/05 12:20:10;;;;;;;1.40;1.40;;;41.60;35.20;;;;;;5044485;28;20455;-81
2023/09/05 12:22:39;;;;;;;1.40;1.40;;;41.70;35.20;;;;;;5044676;28;20439;-81
2023/09/05 12:25:14;;;;;;;1.40;1.40;;;41.80;34.90;;;;;;5043430;28;20925;-80
2023/09/05 12:27:50;;;;;;;1.50;1.40;;;41.80;34.90;;;;;;5040590;28;20577;-81
2023/09/05 12:30:26;;;;;;;1.27;1.27;;;41.90;34.90;;;;;;5039524;28;20443;-80
2023/09/05 12:32:57;;;;;;;1.50;1.50;;;41.90;34.70;;;;;;5039699;28;20442;-81
2023/09/05 12:35:28;;;;;;;1.43;1.33;;;41.90;34.70;;;;;;5041240;28;20454;-79
2023/09/05 12:37:56;;;;;;;1.60;1.50;;;41.90;34.70;;;;;;5039603;28;20486;-80
2023/09/05 12:40:24;;;;;;;1.40;1.40;;;42.00;34.70;;;;;;5039945;28;20470;-80
2023/09/05 12:42:52;;;;;;;1.37;1.37;;;42.10;34.60;;;;;;5040715;28;20477;-80
2023/09/05 12:45:20;;;;;;;1.40;1.40;;;42.10;34.50;;;;;;5039236;28;20469;-81
2023/09/05 12:47:49;;;;;;;1.30;1.30;;;42.10;34.60;;;;;;5039301;28;20474;-80
2023/09/05 12:50:25;;;;;;;1.37;1.37;;;42.30;34.60;;;;;;5039667;28;20541;-80
2023/09/05 12:52:54;;;;;;;1.60;1.60;;;42.30;34.40;;;;;;5038825;28;20443;-78
2023/09/05 12:55:22;;;;;;;1.37;1.37;;;42.30;34.30;;;;;;5039769;28;20459;-81
2023/09/05 12:57:51;;;;;;;1.30;1.30;;;42.30;34.30;;;;;;5041059;28;20482;-80
2023/09/05 13:00:19;;;;;;;1.10;1.10;;;42.40;34.30;;;;;;5041376;28;20447;-81
2023/09/05 13:02:48;;;;;;;1.20;1.20;;;42.60;34.30;;;;;;5041289;28;20481;-80
2023/09/05 13:05:17;;;;;;;1.27;1.27;;;42.60;34.10;;;;;;5040924;28;20864;-80